• Join FlightAware (Why Join?)
  • Login
  • US Flag 
06:24PM EDT


 

Airport Tracker/Info


-or-


 

Live Flight TrackerFlight Track Log ✈ C-GGBL ✈ 20-Sep-2013 ✈ CYYC - PHOG / OGG

Flight Track Log - Related Links

Times and Time Zones

All times are in EDT time to prevent confusion due to time zone crossing. See the C-GGBL flight status page for this flight to view local times or setup timezone preferences in your user account.

Time Position Orientation Groundspeed Altitude Reporting Facility
EDT Latitude Longitude Course Direction KTS MPH feet Rate Location/Type
02:57PM 51.0833 -114.0333 192° South 180 207 3,700  Level Edmonton Center
02:58PM 51.0333 -114.0500 192° South 200 230 6,000 2,400 Climbing Edmonton Center
02:59PM 50.9667 -114.0333 171° South 240 276 8,600 2,400 Climbing Edmonton Center
03:00PM 50.9167 -114.0833 212° Southwest 260 299 10,900 2,280 Climbing Edmonton Center
03:01PM 50.9333 -114.2167 214° Southwest 300 345 13,200 2,400 Climbing Edmonton Center
03:02PM 50.9500 -114.3500 281° West 320 368 15,700 2,340 Climbing Edmonton Center
03:03PM 50.9833 -114.5000 289° West 330 380 17,900 2,100 Climbing Edmonton Center
03:04PM 50.9833 -114.6333 270° West 340 391 19,900 1,860 Climbing Edmonton Center
03:05PM 51.0000 -114.8000 279° West 350 403 21,700 1,680 Climbing Edmonton Center
03:06PM 50.9833 -114.9500 260° West 350 403 23,300 1,620 Climbing Edmonton Center
03:07PM 50.9500 -115.1167 252° West 360 414 25,000 1,500 Climbing Edmonton Center
03:08PM 50.9500 -115.2667 270° West 360 414 26,300 1,260 Climbing Edmonton Center
03:09PM 50.9167 -115.4333 252° West 370 426 27,600 1,320 Climbing Edmonton Center
03:10PM 50.8833 -115.5833 251° West 370 426 29,000 1,200 Climbing Edmonton Center
03:11PM 50.8667 -115.7333 260° West 380 437 30,000 960 Climbing Edmonton Center
03:12PM 50.8333 -115.9167 254° West 380 437 31,000 960 Climbing Edmonton Center
03:13PM 50.8000 -116.0667 251° West 380 437 32,000 960 Climbing Edmonton Center
03:14PM 50.7833 -116.1500 252° West 380 437 32,900 900 Climbing Vancouver Center
03:15PM 50.7667 -116.3167 261° West 380 437 33,700 660 Climbing Vancouver Center
03:16PM 50.7500 -116.4833 261° West 390 449 34,300 540 Climbing Vancouver Center
03:17PM 50.7167 -116.6500 253° West 390 449 34,800 540 Climbing Vancouver Center
03:18PM 50.7000 -116.8000 260° West 390 449 35,400 360 Climbing Vancouver Center
03:19PM 50.6667 -116.9667 253° West 390 449 35,600 180 Climbing Vancouver Center
03:20PM 50.6500 -117.1500 262° West 400 460 35,800 180 Climbing Vancouver Center
03:21PM 50.6167 -117.3167 253° West 410 472 36,000 60 Climbing Vancouver Center
03:22PM 50.5833 -117.5167 255° West 420 483 36,000  Level Vancouver Center
03:23PM 50.5667 -117.7000 262° West 420 483 36,000  Level Vancouver Center
03:24PM 50.5167 -117.8667 245° Southwest 420 483 36,000  Level Vancouver Center
03:25PM 50.5000 -118.0500 262° West 420 483 36,000  Level Vancouver Center
03:26PM 50.4667 -118.2000 251° West 420 483 36,000  Level Vancouver Center
03:27PM 50.4333 -118.4000 255° West 430 495 36,000  Level Vancouver Center
03:28PM 50.4000 -118.5833 254° West 430 495 36,000  Level Vancouver Center
03:29PM 50.3833 -118.7500 261° West 430 495 36,000  Level Vancouver Center
03:30PM 50.3333 -118.9333 247° West 430 495 36,000  Level Vancouver Center
03:31PM 50.3167 -119.1167 262° West 420 483 36,000  Level Vancouver Center
03:32PM 50.2833 -119.3000 254° West 420 483 36,000  Level Vancouver Center
03:33PM 50.2333 -119.4667 245° Southwest 420 483 36,000  Level Vancouver Center
03:34PM 50.2167 -119.6167 260° West 420 483 36,000  Level Vancouver Center
03:35PM 50.1833 -119.8000 254° West 410 472 36,000  Level Vancouver Center
03:36PM 50.1667 -119.9667 261° West 410 472 36,000  Level Vancouver Center
03:37PM 50.1167 -120.1500 247° West 410 472 36,000  Level Vancouver Center
03:38PM 50.0833 -120.3333 254° West 410 472 36,000  Level Vancouver Center
03:39PM 50.0667 -120.5000 261° West 420 483 36,000  Level Vancouver Center
03:40PM 50.0167 -120.6833 247° West 420 483 36,000  Level Vancouver Center
03:41PM 49.9833 -120.8333 251° West 410 472 36,000  Level Vancouver Center
03:42PM 49.9500 -121.0167 254° West 410 472 36,000  Level Vancouver Center
03:43PM 49.9333 -121.1833 261° West 410 472 36,000  Level Vancouver Center
03:49PM 49.7393 -122.1640 261° West 414 476 36,000  Level FlightAware ADS-B
03:52PM 49.6063 -122.7890 252° West 417 480 36,000  Level FlightAware ADS-B
03:53PM 49.5878 -122.8740 251° West 416 479 36,000  Level FlightAware ADS-B
03:54PM 49.5531 -123.0340 252° West 414 476 36,000 180 Level FlightAware ADS-B
03:56PM 49.4898 -123.3210 251° West 412 474 36,600 300 Climbing FlightAware ADS-B
03:56PM 49.4714 -123.4040 251° West 410 472 36,800 360 Climbing FlightAware ADS-B
03:57PM 49.4531 -123.4860 251° West 410 472 37,000 240 Climbing FlightAware ADS-B
03:57PM 49.4346 -123.5690 251° West 409 471 37,100 240 Climbing FlightAware ADS-B
03:58PM 49.4122 -123.6690 251° West 409 471 37,300 240 Climbing FlightAware ADS-B
03:58PM 49.3938 -123.7510 251° West 407 468 37,400 300 Climbing FlightAware ADS-B
03:59PM 49.3752 -123.8330 251° West 406 467 37,600 300 Climbing FlightAware ADS-B
03:59PM 49.3567 -123.9140 251° West 405 466 37,700 240 Climbing FlightAware ADS-B
04:00PM 49.3377 -123.9970 251° West 403 464 37,900 240 Climbing FlightAware ADS-B
04:00PM 49.3191 -124.0780 251° West 402 463 38,000 60 Climbing FlightAware ADS-B
04:01PM 49.3005 -124.1590 251° West 403 464 38,000  Level FlightAware ADS-B
04:01PM 49.2816 -124.2410 251° West 404 465 38,000  Level FlightAware ADS-B
04:02PM 49.2628 -124.3220 250° West 403 464 38,000  Level FlightAware ADS-B
04:02PM 49.2441 -124.4030 251° West 405 466 38,000  Level FlightAware ADS-B
04:03PM 49.2110 -124.5450 250° West 405 466 38,000  Level FlightAware ADS-B
04:05PM 49.1596 -124.7620 250° West 405 466 38,000  Level FlightAware ADS-B
04:05PM 49.1399 -124.8450 250° West 405 466 38,000  Level FlightAware ADS-B
04:06PM 49.1206 -124.9260 250° West 406 467 38,000  Level FlightAware ADS-B
04:06PM 49.1011 -125.0080 250° West 406 467 38,000  Level FlightAware ADS-B
04:07PM 49.0812 -125.0900 250° West 406 467 38,000  Level FlightAware ADS-B
04:07PM 49.0578 -125.1880 250° West 406 467 38,000  Level FlightAware ADS-B
04:09PM 48.9893 -125.4700 250° West 406 467 38,000  Level FlightAware ADS-B
04:10PM 48.9167 -125.6500 250° West 410 472 38,000  Level Vancouver Center
04:11PM 48.8833 -125.8000 251° West 410 472 38,000  Level Vancouver Center
04:12PM 48.8500 -125.9500 251° West 410 472 38,000  Level Vancouver Center
04:13PM 48.8167 -126.1333 255° West 400 460 38,000  Level Vancouver Center
04:14PM 48.7833 -126.2833 251° West 400 460 38,000  Level Vancouver Center
04:15PM 48.7167 -126.4500 239° Southwest 410 472 38,000  Level Vancouver Center
04:16PM 48.6833 -126.6000 251° West 410 472 38,000  Level Vancouver Center
04:17PM 48.6500 -126.7500 251° West 400 460 38,000  Level Vancouver Center
04:18PM 48.6167 -126.9333 255° West 410 472 38,000  Level Vancouver Center
04:19PM 48.5667 -127.0833 243° Southwest 410 472 38,000  Level Vancouver Center
04:20PM 48.5167 -127.2500 246° West 410 472 38,000  Level Vancouver Center
04:21PM 48.4833 -127.4000 252° West 410 472 38,000  Level Vancouver Center
04:22PM 48.4500 -127.5667 253° West 420 483 38,000  Level Vancouver Center
04:23PM 48.3833 -127.7167 236° Southwest 420 483 38,000  Level Vancouver Center
04:24PM 48.3500 -127.9000 255° West 410 472 38,000  Level Vancouver Center
04:25PM 48.3167 -128.0333 249° West 420 483 38,000  Level Vancouver Center
04:26PM 48.2500 -128.2167 241° Southwest 420 483 38,000  Level Vancouver Center
04:27PM 48.2167 -128.3667 252° West 420 483 38,000  Level Vancouver Center
04:28PM 48.1500 -128.5333 239° Southwest 420 483 38,000  Level Vancouver Center
04:29PM 48.1167 -128.7000 253° West 430 495 38,000  Level Vancouver Center
04:30PM 48.0667 -128.8500 244° Southwest 420 483 38,000  Level Vancouver Center
04:31PM 48.0167 -129.0167 246° West 420 483 38,000  Level Vancouver Center
04:32PM 47.9667 -129.1667 244° Southwest 430 495 38,000  Level Vancouver Center
04:34PM 47.8941 -129.3949 245° Southwest  Level FlightAware Approximate
04:41PM 47.5374 -130.4880 245° Southwest  Level FlightAware Approximate
04:42PM 47.4860 -130.6432 244° Southwest  Level FlightAware Approximate
04:43PM 47.4353 -130.7988 244° Southwest  Level FlightAware Approximate
04:44PM 47.3845 -130.9541 244° Southwest  Level FlightAware Approximate
04:45PM 47.3334 -131.1091 244° Southwest  Level FlightAware Approximate
04:46PM 47.2821 -131.2638 244° Southwest  Level FlightAware Approximate
04:47PM 47.2306 -131.4182 244° Southwest  Level FlightAware Approximate
04:48PM 47.1789 -131.5723 244° Southwest  Level FlightAware Approximate
04:49PM 47.1270 -131.7261 244° Southwest  Level FlightAware Approximate
04:50PM 47.0749 -131.8796 244° Southwest  Level FlightAware Approximate
04:51PM 47.0226 -132.0328 243° Southwest  Level FlightAware Approximate
04:52PM 46.9761 -132.1896 244° Southwest  Level FlightAware Approximate
04:52PM 48.3333 -128.0000 246° West 428 493 38,000  Level Oakland Oceanic (ODAPS)
04:53PM 46.9254 -132.3437 244° Southwest  Level FlightAware Approximate
04:53PM 47.0000 -132.1333 244° Southwest 453 521 38,000  Level Oakland Oceanic (ODAPS)
04:54PM 46.8744 -132.4975 244° Southwest  Level FlightAware Approximate
04:55PM 46.8233 -132.6509 244° Southwest  Level FlightAware Approximate
04:56PM 46.7719 -132.8041 244° Southwest  Level FlightAware Approximate
04:57PM 46.7204 -132.9570 244° Southwest  Level FlightAware Approximate
04:58PM 46.6686 -133.1096 244° Southwest  Level FlightAware Approximate
04:59PM 46.5745 -133.3984 243° Southwest 428 493 38,000  Level FlightAware Transoceanic
05:00PM 46.5008 -133.6115 243° Southwest 453 521 38,000  Level FlightAware Transoceanic
05:01PM 46.4441 -133.7740 243° Southwest 453 521 38,000  Level FlightAware Transoceanic
05:02PM 46.3872 -133.9362 243° Southwest 453 521 38,000  Level FlightAware Transoceanic
05:03PM 46.3302 -134.0981 243° Southwest 453 521 38,000  Level FlightAware Transoceanic
05:04PM 46.2728 -134.2596 243° Southwest 453 521 38,000  Level FlightAware Transoceanic
05:05PM 46.2153 -134.4208 243° Southwest 453 521 38,000  Level FlightAware Transoceanic
05:06PM 46.1575 -134.5817 243° Southwest 453 521 38,000  Level FlightAware Transoceanic
05:07PM 46.0995 -134.7422 242° Southwest 453 521 38,000  Level FlightAware Transoceanic
05:08PM 46.0413 -134.9024 242° Southwest 453 521 38,000  Level FlightAware Transoceanic
05:09PM 45.9828 -135.0622 242° Southwest 453 521 38,000  Level FlightAware Transoceanic
05:10PM 45.9241 -135.2217 242° Southwest 453 521 38,000  Level FlightAware Transoceanic
05:11PM 45.8653 -135.3809 242° Southwest 453 521 38,000  Level FlightAware Transoceanic
05:12PM 45.8061 -135.5397 242° Southwest 453 521 38,000  Level FlightAware Transoceanic
05:13PM 45.7468 -135.6982 242° Southwest 453 521 38,000  Level FlightAware Transoceanic
05:14PM 45.6873 -135.8564 242° Southwest 453 521 38,000  Level FlightAware Transoceanic
05:15PM 45.6275 -136.0142 241° Southwest 453 521 38,000  Level FlightAware Transoceanic
05:16PM 45.5675 -136.1716 241° Southwest 453 521 38,000  Level FlightAware Transoceanic
05:17PM 45.5073 -136.3288 241° Southwest 453 521 38,000  Level FlightAware Transoceanic
05:18PM 45.4469 -136.4856 241° Southwest 453 521 38,000  Level FlightAware Transoceanic
05:19PM 45.3862 -136.6421 241° Southwest 453 521 38,000  Level FlightAware Transoceanic
05:20PM 45.3254 -136.7982 241° Southwest 453 521 38,000  Level FlightAware Transoceanic
05:21PM 45.2643 -136.9540 241° Southwest 453 521 38,000  Level FlightAware Transoceanic
05:22PM 45.2031 -137.1095 241° Southwest 453 521 38,000  Level FlightAware Transoceanic
05:23PM 45.1416 -137.2646 241° Southwest 453 521 38,000  Level FlightAware Transoceanic
05:24PM 45.0799 -137.4194 240° Southwest 453 521 38,000  Level FlightAware Transoceanic
05:25PM 45.0180 -137.5738 240° Southwest 453 521 38,000  Level FlightAware Transoceanic
05:26PM 44.9559 -137.7280 240° Southwest 453 521 38,000  Level FlightAware Transoceanic
05:27PM 44.8936 -137.8818 240° Southwest 453 521 38,000  Level FlightAware Transoceanic
05:28PM 44.8311 -138.0352 240° Southwest 453 521 38,000  Level FlightAware Transoceanic
05:29PM 44.7683 -138.1883 240° Southwest 453 521 38,000  Level FlightAware Transoceanic
05:30PM 44.7054 -138.3411 240° Southwest 453 521 38,000  Level FlightAware Transoceanic
05:31PM 44.6423 -138.4936 240° Southwest 453 521 38,000  Level FlightAware Transoceanic
05:32PM 44.5790 -138.6457 240° Southwest 453 521 38,000  Level FlightAware Transoceanic
05:33PM 44.5154 -138.7975 240° Southwest 453 521 38,000  Level FlightAware Transoceanic
05:34PM 44.4517 -138.9490 239° Southwest 453 521 38,000  Level FlightAware Transoceanic
05:35PM 44.3877 -139.1001 239° Southwest 453 521 38,000  Level FlightAware Transoceanic
05:36PM 44.3236 -139.2509 239° Southwest 453 521 38,000  Level FlightAware Transoceanic
05:37PM 44.2593 -139.4014 239° Southwest 453 521 38,000  Level FlightAware Transoceanic
05:38PM 44.1948 -139.5515 239° Southwest 453 521 38,000  Level FlightAware Transoceanic
05:39PM 44.1300 -139.7014 239° Southwest 453 521 38,000  Level FlightAware Transoceanic
05:40PM 44.0651 -139.8508 239° Southwest 453 521 38,000  Level FlightAware Transoceanic
05:41PM 44.0000 -140.0000 225° Southwest 453 521 38,000  Level FlightAware Transoceanic
05:42PM 43.9051 -140.1297 224° Southwest 453 521 38,000  Level FlightAware Transoceanic
05:42PM 44.0000 -140.0000 225° Southwest 479 551 38,000  Level Oakland Oceanic (ODAPS)
05:43PM 43.8101 -140.2590 224° Southwest 453 521 38,000  Level FlightAware Transoceanic
05:44PM 43.7150 -140.3878 224° Southwest 453 521 38,000  Level FlightAware Transoceanic
05:45PM 43.6197 -140.5163 224° Southwest 453 521 38,000  Level FlightAware Transoceanic
05:46PM 43.5242 -140.6444 224° Southwest 453 521 38,000  Level FlightAware Transoceanic
05:47PM 43.4286 -140.7720 224° Southwest 453 521 38,000  Level FlightAware Transoceanic
05:48PM 43.3329 -140.8992 224° Southwest 453 521 38,000  Level FlightAware Transoceanic
05:49PM 43.2370 -141.0261 224° Southwest 479 551 38,000  Level FlightAware Transoceanic
05:50PM 43.1410 -141.1525 224° Southwest 479 551 38,000  Level FlightAware Transoceanic
05:51PM 43.0448 -141.2786 224° Southwest 479 551 38,000  Level FlightAware Transoceanic
05:52PM 42.9486 -141.4043 224° Southwest 479 551 38,000  Level FlightAware Transoceanic
05:53PM 42.8521 -141.5295 224° Southwest 479 551 38,000  Level FlightAware Transoceanic
05:54PM 42.7556 -141.6544 223° Southwest 479 551 38,000  Level FlightAware Transoceanic
05:55PM 42.6589 -141.7789 223° Southwest 479 551 38,000  Level FlightAware Transoceanic
05:56PM 42.5620 -141.9030 223° Southwest 479 551 38,000  Level FlightAware Transoceanic
05:57PM 42.4651 -142.0267 223° Southwest 479 551 38,000  Level FlightAware Transoceanic
05:58PM 42.3680 -142.1500 223° Southwest 479 551 38,000  Level FlightAware Transoceanic
05:59PM 42.2707 -142.2729 223° Southwest 479 551 38,000  Level FlightAware Transoceanic
06:00PM 42.1734 -142.3955 223° Southwest 479 551 38,000  Level FlightAware Transoceanic
06:01PM 42.0759 -142.5177 223° Southwest 479 551 38,000  Level FlightAware Transoceanic
06:02PM 41.9783 -142.6395 223° Southwest 479 551 38,000  Level FlightAware Transoceanic
06:03PM 41.8805 -142.7610 223° Southwest 479 551 38,000  Level FlightAware Transoceanic
06:04PM 41.7827 -142.8820 223° Southwest 479 551 38,000  Level FlightAware Transoceanic
06:05PM 41.6847 -143.0027 223° Southwest 479 551 38,000  Level FlightAware Transoceanic
06:06PM 41.5865 -143.1231 222° Southwest 479 551 38,000  Level FlightAware Transoceanic
06:07PM 41.4883 -143.2430 222° Southwest 479 551 38,000  Level FlightAware Transoceanic
06:08PM 41.3899 -143.3626 222° Southwest 479 551 38,000  Level FlightAware Transoceanic
06:09PM 41.2914 -143.4819 222° Southwest 479 551 38,000  Level FlightAware Transoceanic
06:10PM 41.1928 -143.6008 222° Southwest 479 551 38,000  Level FlightAware Transoceanic
06:11PM 41.0940 -143.7193 222° Southwest 479 551 38,000  Level FlightAware Transoceanic
06:12PM 40.9952 -143.8375 222° Southwest 479 551 38,000  Level FlightAware Transoceanic
06:13PM 40.8962 -143.9553 222° Southwest 479 551 38,000  Level FlightAware Transoceanic
06:14PM 40.7971 -144.0728 222° Southwest 479 551 38,000  Level FlightAware Transoceanic
06:15PM 40.6978 -144.1899 222° Southwest 479 551 38,000  Level FlightAware Transoceanic
06:16PM 40.5985 -144.3066 222° Southwest 479 551 38,000  Level FlightAware Transoceanic
06:17PM 40.4990 -144.4230 222° Southwest 479 551 38,000  Level FlightAware Transoceanic
06:18PM 40.3995 -144.5391 222° Southwest 479 551 38,000  Level FlightAware Transoceanic
06:19PM 40.2998 -144.6548 221° Southwest 479 551 38,000  Level FlightAware Transoceanic
06:20PM 40.2000 -144.7702 221° Southwest 479 551 38,000  Level FlightAware Transoceanic
06:21PM 40.1000 -144.8853 221° Southwest 479 551 38,000  Level FlightAware Transoceanic
06:22PM 40.0000 -145.0000 211° Southwest 479 551 38,000  Level FlightAware Transoceanic
06:23PM 39.8871 -145.0898 211° Southwest 479 551 38,000 1,380 Level FlightAware Transoceanic
06:23PM 40.0000 -145.0000 211° Southwest 468 539 40,000  Climbing Oakland Oceanic (ODAPS)
06:24PM 39.7740 -145.1792 211° Southwest 479 551 38,000 -1,260 Descending FlightAware Transoceanic
06:25PM 39.6609 -145.2684 211° Southwest 479 551 38,000  Level FlightAware Transoceanic
06:26PM 39.5478 -145.3573 211° Southwest 479 551 38,000  Level FlightAware Transoceanic
06:27PM 39.4346 -145.4459 211° Southwest 479 551 38,000  Level FlightAware Transoceanic
06:28PM 39.3213 -145.5343 211° Southwest 479 551 38,000 960 Level FlightAware Transoceanic
06:29PM 39.1091 -145.6987 211° Southwest 468 539 40,000 960 Climbing FlightAware Transoceanic
06:30PM 38.9975 -145.7848 211° Southwest 468 539 40,000  Level FlightAware Transoceanic
06:31PM 38.8858 -145.8706 211° Southwest 468 539 40,000  Level FlightAware Transoceanic
06:32PM 38.7740 -145.9562 211° Southwest 468 539 40,000  Level FlightAware Transoceanic
06:33PM 38.6622 -146.0415 211° Southwest 468 539 40,000  Level FlightAware Transoceanic
06:34PM 38.5503 -146.1265 211° Southwest 468 539 40,000  Level FlightAware Transoceanic
06:35PM 38.4383 -146.2112 211° Southwest 468 539 40,000  Level FlightAware Transoceanic
06:36PM 38.3263 -146.2957 211° Southwest 468 539 40,000  Level FlightAware Transoceanic
06:37PM 38.2142 -146.3799 211° Southwest 468 539 40,000  Level FlightAware Transoceanic
06:38PM 38.1021 -146.4639 210° Southwest 468 539 40,000  Level FlightAware Transoceanic
06:39PM 37.9899 -146.5476 210° Southwest 468 539 40,000  Level FlightAware Transoceanic
06:40PM 37.8776 -146.6311 210° Southwest 468 539 40,000  Level FlightAware Transoceanic
06:41PM 37.7653 -146.7143 210° Southwest 468 539 40,000  Level FlightAware Transoceanic
06:42PM 37.6529 -146.7972 210° Southwest 468 539 40,000  Level FlightAware Transoceanic
06:43PM 37.5405 -146.8799 210° Southwest 468 539 40,000  Level FlightAware Transoceanic
06:44PM 37.4280 -146.9624 210° Southwest 468 539 40,000  Level FlightAware Transoceanic
06:45PM 37.3154 -147.0446 210° Southwest 468 539 40,000  Level FlightAware Transoceanic
06:46PM 37.2028 -147.1266 210° Southwest 468 539 40,000  Level FlightAware Transoceanic
06:47PM 37.0902 -147.2083 210° Southwest 468 539 40,000  Level FlightAware Transoceanic
06:48PM 36.9775 -147.2897 210° Southwest 468 539 40,000  Level FlightAware Transoceanic
06:49PM 36.8647 -147.3710 210° Southwest 468 539 40,000  Level FlightAware Transoceanic
06:50PM 36.7519 -147.4520 210° Southwest 468 539 40,000  Level FlightAware Transoceanic
06:51PM 36.6390 -147.5327 210° Southwest 468 539 40,000  Level FlightAware Transoceanic
06:52PM 36.5260 -147.6132 210° Southwest 468 539 40,000  Level FlightAware Transoceanic
06:53PM 36.4131 -147.6935 210° Southwest 468 539 40,000  Level FlightAware Transoceanic
06:54PM 36.3000 -147.7735 210° Southwest 468 539 40,000  Level FlightAware Transoceanic
06:55PM 36.1869 -147.8534 210° Southwest 468 539 40,000  Level FlightAware Transoceanic
06:56PM 36.0737 -147.9330 210° Southwest 468 539 40,000  Level FlightAware Transoceanic
06:57PM 35.9605 -148.0123 210° Southwest 468 539 40,000  Level FlightAware Transoceanic
06:58PM 35.8473 -148.0914 209° Southwest 468 539 40,000  Level FlightAware Transoceanic
06:59PM 35.7340 -148.1703 209° Southwest 468 539 40,000  Level FlightAware Transoceanic
07:00PM 35.6206 -148.2490 209° Southwest 468 539 40,000  Level FlightAware Transoceanic
07:01PM 35.5072 -148.3275 209° Southwest 468 539 40,000  Level FlightAware Transoceanic
07:02PM 35.3938 -148.4057 209° Southwest 468 539 40,000  Level FlightAware Transoceanic
07:03PM 35.2803 -148.4837 209° Southwest 468 539 40,000  Level FlightAware Transoceanic
07:04PM 35.1667 -148.5615 209° Southwest 468 539 40,000  Level FlightAware Transoceanic
07:05PM 35.0531 -148.6391 209° Southwest 468 539 40,000  Level FlightAware Transoceanic
07:06PM 34.9394 -148.7165 209° Southwest 468 539 40,000  Level FlightAware Transoceanic
07:07PM 34.8257 -148.7936 209° Southwest 468 539 40,000  Level FlightAware Transoceanic
07:08PM 34.7119 -148.8705 209° Southwest 468 539 40,000  Level FlightAware Transoceanic
07:09PM 34.5981 -148.9473 209° Southwest 468 539 40,000  Level FlightAware Transoceanic
07:10PM 34.4843 -149.0238 209° Southwest 468 539 40,000  Level FlightAware Transoceanic
07:11PM 34.3704 -149.1001 209° Southwest 468 539 40,000  Level FlightAware Transoceanic
07:12PM 34.2565 -149.1762 209° Southwest 468 539 40,000  Level FlightAware Transoceanic
07:13PM 34.1424 -149.2521 209° Southwest 468 539 40,000  Level FlightAware Transoceanic
07:14PM 34.0284 -149.3278 209° Southwest 468 539 40,000  Level FlightAware Transoceanic
07:15PM 33.9143 -149.4033 209° Southwest 468 539 40,000  Level FlightAware Transoceanic
07:16PM 33.8002 -149.4785 209° Southwest 468 539 40,000  Level FlightAware Transoceanic
07:17PM 33.6860 -149.5536 209° Southwest 468 539 40,000  Level FlightAware Transoceanic
07:18PM 33.5718 -149.6285 209° Southwest 468 539 40,000  Level FlightAware Transoceanic
07:19PM 33.4575 -149.7032 209° Southwest 468 539 40,000  Level FlightAware Transoceanic
07:20PM 33.3432 -149.7777 209° Southwest 468 539 40,000  Level FlightAware Transoceanic
07:21PM 33.2289 -149.8520 208° Southwest 468 539 40,000  Level FlightAware Transoceanic
07:22PM 33.1144 -149.9261 208° Southwest 468 539 40,000  Level FlightAware Transoceanic
07:23PM 33.0000 -150.0000 217° Southwest 468 539 40,000  Level FlightAware Transoceanic
07:23PM 33.0000 -150.0000 217° Southwest 436 502 40,000  Level Oakland Oceanic (ODAPS)
07:24PM 32.9033 -150.0871 217° Southwest 468 539 40,000  Level FlightAware Transoceanic
07:25PM 32.8064 -150.1741 217° Southwest 468 539 40,000  Level FlightAware Transoceanic
07:26PM 32.7096 -150.2608 217° Southwest 468 539 40,000  Level FlightAware Transoceanic
07:27PM 32.6127 -150.3473 217° Southwest 468 539 40,000  Level FlightAware Transoceanic
07:28PM 32.5157 -150.4337 217° Southwest 468 539 40,000  Level FlightAware Transoceanic
07:29PM 32.4186 -150.5199 217° Southwest 468 539 40,000  Level FlightAware Transoceanic
07:30PM 32.2244 -150.6917 217° Southwest 436 502 40,000  Level FlightAware Transoceanic
07:31PM 32.1272 -150.7773 217° Southwest 436 502 40,000  Level FlightAware Transoceanic
07:32PM 32.0299 -150.8627 217° Southwest 436 502 40,000  Level FlightAware Transoceanic
07:33PM 31.9326 -150.9480 217° Southwest 436 502 40,000  Level FlightAware Transoceanic
07:34PM 31.8352 -151.0331 217° Southwest 436 502 40,000  Level FlightAware Transoceanic
07:35PM 31.7377 -151.1180 217° Southwest 436 502 40,000  Level FlightAware Transoceanic
07:36PM 31.6402 -151.2027 216° Southwest 436 502 40,000  Level FlightAware Transoceanic
07:37PM 31.5427 -151.2872 216° Southwest 436 502 40,000  Level FlightAware Transoceanic
07:38PM 31.4450 -151.3716 216° Southwest 436 502 40,000  Level FlightAware Transoceanic
07:39PM 31.3474 -151.4558 216° Southwest 436 502 40,000  Level FlightAware Transoceanic
07:40PM 31.2496 -151.5398 216° Southwest 436 502 40,000  Level FlightAware Transoceanic
07:41PM 31.1519 -151.6237 216° Southwest 436 502 40,000  Level FlightAware Transoceanic
07:42PM 31.0540 -151.7074 216° Southwest 436 502 40,000  Level FlightAware Transoceanic
07:43PM 30.9562 -151.7908 216° Southwest 436 502 40,000  Level FlightAware Transoceanic
07:44PM 30.8582 -151.8742 216° Southwest 436 502 40,000  Level FlightAware Transoceanic
07:45PM 30.7602 -151.9573 216° Southwest 436 502 40,000  Level FlightAware Transoceanic
07:46PM 30.6622 -152.0403 216° Southwest 436 502 40,000  Level FlightAware Transoceanic
07:47PM 30.5641 -152.1231 216° Southwest 436 502 40,000  Level FlightAware Transoceanic
07:48PM 30.4659 -152.2058 216° Southwest 436 502 40,000  Level FlightAware Transoceanic
07:49PM 30.3677 -152.2883 216° Southwest 436 502 40,000  Level FlightAware Transoceanic
07:50PM 30.2695 -152.3706 216° Southwest 436 502 40,000  Level FlightAware Transoceanic
07:51PM 30.1712 -152.4528 216° Southwest 436 502 40,000  Level FlightAware Transoceanic
07:52PM 30.0728 -152.5348 216° Southwest 436 502 40,000  Level FlightAware Transoceanic
07:53PM 29.9744 -152.6166 216° Southwest 436 502 40,000  Level FlightAware Transoceanic
07:54PM 29.8759 -152.6983 216° Southwest 436 502 40,000  Level FlightAware Transoceanic
07:55PM 29.7774 -152.7798 216° Southwest 436 502 40,000  Level FlightAware Transoceanic
07:56PM 29.6789 -152.8611 216° Southwest 436 502 40,000  Level FlightAware Transoceanic
07:57PM 29.5803 -152.9423 216° Southwest 436 502 40,000  Level FlightAware Transoceanic
07:58PM 29.4816 -153.0233 216° Southwest 436 502 40,000  Level FlightAware Transoceanic
07:59PM 29.3829 -153.1042 215° Southwest 436 502 40,000  Level FlightAware Transoceanic
08:00PM 29.2841 -153.1849 215° Southwest 436 502 40,000  Level FlightAware Transoceanic
08:01PM 29.1854 -153.2655 215° Southwest 436 502 40,000  Level FlightAware Transoceanic
08:02PM 29.0865 -153.3459 215° Southwest 436 502 40,000  Level FlightAware Transoceanic
08:03PM 28.9876 -153.4261 215° Southwest 436 502 40,000  Level FlightAware Transoceanic
08:04PM 28.8887 -153.5062 215° Southwest 436 502 40,000  Level FlightAware Transoceanic
08:05PM 28.7897 -153.5862 215° Southwest 436 502 40,000  Level FlightAware Transoceanic
08:06PM 28.6906 -153.6660 215° Southwest 436 502 40,000  Level FlightAware Transoceanic
08:07PM 28.5915 -153.7456 215° Southwest 436 502 40,000  Level FlightAware Transoceanic
08:08PM 28.4924 -153.8251 215° Southwest 436 502 40,000  Level FlightAware Transoceanic
08:09PM 28.3932 -153.9044 215° Southwest 436 502 40,000  Level FlightAware Transoceanic
08:10PM 28.2940 -153.9836 215° Southwest 436 502 40,000  Level FlightAware Transoceanic
08:11PM 28.1947 -154.0627 215° Southwest 436 502 40,000  Level FlightAware Transoceanic
08:12PM 28.0954 -154.1416 215° Southwest 436 502 40,000  Level FlightAware Transoceanic
08:13PM 27.9960 -154.2203 215° Southwest 436 502 40,000  Level FlightAware Transoceanic
08:14PM 27.8966 -154.2989 215° Southwest 436 502 40,000  Level FlightAware Transoceanic
08:15PM 27.7972 -154.3774 215° Southwest 436 502 40,000  Level FlightAware Transoceanic
08:16PM 27.6977 -154.4557 215° Southwest 436 502 40,000  Level FlightAware Transoceanic
08:17PM 27.5982 -154.5339 215° Southwest 436 502 40,000  Level FlightAware Transoceanic
08:18PM 27.4986 -154.6119 215° Southwest 436 502 40,000  Level FlightAware Transoceanic
08:19PM 27.3989 -154.6898 215° Southwest 436 502 40,000  Level FlightAware Transoceanic
08:20PM 27.2993 -154.7676 215° Southwest 436 502 40,000  Level FlightAware Transoceanic
08:21PM 27.1996 -154.8452 215° Southwest 436 502 40,000  Level FlightAware Transoceanic
08:22PM 27.0998 -154.9227 215° Southwest 436 502 40,000  Level FlightAware Transoceanic
08:23PM 27.0000 -155.0000 216° Southwest 436 502 40,000  Level FlightAware Transoceanic
08:23PM 27.0000 -155.0000 216° Southwest 441 507 40,000  Level Oakland Oceanic (ODAPS)
08:24PM 26.9004 -155.0799 216° Southwest 436 502 40,000  Level FlightAware Transoceanic
08:25PM 26.8007 -155.1596 215° Southwest 436 502 40,000  Level FlightAware Transoceanic
08:26PM 26.7010 -155.2392 215° Southwest 436 502 40,000  Level FlightAware Transoceanic
08:27PM 26.6012 -155.3186 215° Southwest 436 502 40,000  Level FlightAware Transoceanic
08:28PM 26.5014 -155.3979 215° Southwest 436 502 40,000  Level FlightAware Transoceanic
08:29PM 26.4016 -155.4771 215° Southwest 436 502 40,000  Level FlightAware Transoceanic
08:30PM 26.1017 -155.7138 215° Southwest 441 507 40,000  Level FlightAware Transoceanic
08:31PM 26.0017 -155.7924 215° Southwest 441 507 40,000  Level FlightAware Transoceanic
08:32PM 25.9016 -155.8709 215° Southwest 441 507 40,000  Level FlightAware Transoceanic
08:33PM 25.8015 -155.9493 215° Southwest 441 507 40,000  Level FlightAware Transoceanic
08:34PM 25.7014 -156.0275 215° Southwest 441 507 40,000  Level FlightAware Transoceanic
08:35PM 25.6012 -156.1056 215° Southwest 441 507 40,000  Level FlightAware Transoceanic
08:36PM 25.5009 -156.1835 215° Southwest 441 507 40,000  Level FlightAware Transoceanic
08:37PM 25.4007 -156.2614 215° Southwest 441 507 40,000  Level FlightAware Transoceanic
08:38PM 25.3004 -156.3391 215° Southwest 441 507 40,000  Level FlightAware Transoceanic
08:39PM 25.2000 -156.4167 175° South 441 507 40,000  Level FlightAware Transoceanic
08:39PM 25.2000 -156.3833 175° South 450 518 40,000  Level Honolulu Center
08:40PM 25.0722 -156.4055 175° South 441 507 40,000  Level FlightAware Transoceanic
08:40PM 25.0667 -156.4167 193° South 430 495 40,000  Level Honolulu Center
08:41PM 24.9445 -156.3943 175° South 441 507 40,000  Level FlightAware Transoceanic
08:41PM 24.9500 -156.4000 173° South 450 518 40,000  Level Honolulu Center
08:42PM 24.8167 -156.3831 175° South 441 507 40,000  Level FlightAware Transoceanic
08:42PM 24.8167 -156.4000 180° South 460 529 40,000  Level Honolulu Center
08:43PM 24.6889 -156.3720 175° South 441 507 40,000  Level FlightAware Transoceanic
08:43PM 24.6833 -156.4000 180° South 460 529 40,000  Level Honolulu Center
08:44PM 24.5611 -156.3609 175° South 441 507 40,000  Level FlightAware Transoceanic
08:44PM 24.5667 -156.4000 180° South 460 529 40,000  Level Honolulu Center
08:45PM 24.4333 -156.4000 180° South 460 529 40,000  Level Honolulu Center
08:46PM 24.3000 -156.4000 180° South 460 529 40,000  Level Honolulu Center
08:47PM 24.1833 -156.4000 180° South 460 529 40,000  Level Honolulu Center
08:48PM 24.0500 -156.4000 180° South 460 529 40,000  Level Honolulu Center
08:49PM 23.9333 -156.4000 180° South 450 518 40,000  Level Honolulu Center
08:50PM 23.8000 -156.4000 180° South 460 529 40,000  Level Honolulu Center
08:51PM 23.6667 -156.4000 180° South 450 518 40,000  Level Honolulu Center
08:52PM 23.5500 -156.4000 180° South 450 518 40,000  Level Honolulu Center
08:53PM 23.4167 -156.4000 180° South 440 506 40,000  Level Honolulu Center
08:54PM 23.3000 -156.4000 180° South 450 518 40,000  Level Honolulu Center
08:55PM 23.1667 -156.4000 180° South 450 518 40,000 -60 Level Honolulu Center
08:56PM 23.0500 -156.4167 187° South 450 518 39,900 -720 Descending Honolulu Center
08:57PM 22.9167 -156.4167 180° South 460 529 38,600 -1,920 Descending Honolulu Center
08:58PM 22.7833 -156.4167 180° South 460 529 36,100 -2,460 Descending Honolulu Center
08:59PM 22.6667 -156.4000 172° South 460 529 33,700 -2,460 Descending Honolulu Center
09:00PM 22.5333 -156.4167 187° South 460 529 31,200 -2,460 Descending Honolulu Center
09:01PM 22.4167 -156.4167 180° South 450 518 28,800 -2,400 Descending Honolulu Center
09:02PM 22.2833 -156.4167 180° South 440 506 26,400 -2,400 Descending Honolulu Center
09:03PM 22.1667 -156.4167 180° South 430 495 24,100 -2,280 Descending Honolulu Center
09:04PM 22.0500 -156.4167 180° South 420 483 21,900 -2,280 Descending Honolulu Center
09:05PM 21.9333 -156.4167 180° South 400 460 19,600 -2,100 Descending Honolulu Center
09:06PM 21.8333 -156.4167 180° South 380 437 17,700 -2,040 Descending Honolulu Center
09:07PM 21.7167 -156.4167 180° South 370 426 15,600 -1,800 Descending Honolulu Center
09:08PM 21.6167 -156.4167 180° South 360 414 14,100 -1,560 Descending Honolulu Center
09:09PM 21.5000 -156.4167 180° South 350 403 12,500 -1,500 Descending Honolulu Center
09:10PM 21.4167 -156.4167 180° South 330 380 11,100 -1,380 Descending Honolulu Center
09:11PM 21.3333 -156.4167 180° South 310 357 9,800 -1,380 Descending Honolulu Center
09:12PM 21.2500 -156.3667 151° Southeast 290 334 8,400 -1,500 Descending Honolulu Center
09:13PM 21.1833 -156.3500 167° South 290 334 6,800 -1,800 Descending Honolulu Center
09:14PM 21.1000 -156.3333 169° South 280 322 4,800 -1,440 Descending Honolulu Center
09:15PM 21.0333 -156.3333 180° South 250 288 4,000 -420 Descending Honolulu Center
09:16PM 20.9667 -156.3500 193° South 230 265 4,000 -300 Level Honolulu Center
09:17PM 20.9000 -156.3833 205° Southwest 250 288 3,500 -480 Descending Honolulu Center
09:18PM 20.8333 -156.4167 205° Southwest 250 288 3,100 -300 Descending Honolulu Center
09:19PM 20.8000 -156.4500 223° Southwest 210 242 2,900 -960 Descending Honolulu Center
09:20PM 20.8333 -156.4500 360° North 150 173 1,200 -1,200 Descending Honolulu Center
09:21PM 20.8667 -156.4333 25° Northeast 110 127 500 -720 Descending Honolulu Center